sensor_id;sensor_type;location;lat;lon;timestamp;pressure;altitude;pressure_sealevel;temperature;humidity
7962;BME280;4026;43.652;24.906;2024-01-27T00:00:48;99662.13;;;1.09;100.00
7962;BME280;4026;43.652;24.906;2024-01-27T00:03:15;99656.78;;;1.22;100.00
7962;BME280;4026;43.652;24.906;2024-01-27T00:05:42;99660.97;;;1.23;100.00
7962;BME280;4026;43.652;24.906;2024-01-27T00:08:09;99661.97;;;1.16;100.00
7962;BME280;4026;43.652;24.906;2024-01-27T00:10:37;99660.03;;;1.27;100.00
7962;BME280;4026;43.652;24.906;2024-01-27T00:13:04;99662.31;;;1.36;100.00
7962;BME280;4026;43.652;24.906;2024-01-27T00:15:31;99655.72;;;1.30;100.00
7962;BME280;4026;43.652;24.906;2024-01-27T00:17:58;99660.03;;;1.27;100.00
7962;BME280;4026;43.652;24.906;2024-01-27T00:20:24;99667.00;;;1.16;100.00
7962;BME280;4026;43.652;24.906;2024-01-27T00:22:51;99670.34;;;1.18;100.00
7962;BME280;4026;43.652;24.906;2024-01-27T00:25:18;99665.38;;;1.15;100.00
7962;BME280;4026;43.652;24.906;2024-01-27T00:27:46;99667.25;;;1.06;100.00
7962;BME280;4026;43.652;24.906;2024-01-27T00:30:13;99653.03;;;1.04;100.00
7962;BME280;4026;43.652;24.906;2024-01-27T00:32:40;99655.59;;;1.02;100.00
7962;BME280;4026;43.652;24.906;2024-01-27T00:35:07;99656.03;;;0.84;100.00
7962;BME280;4026;43.652;24.906;2024-01-27T00:37:35;99648.63;;;0.78;100.00
7962;BME280;4026;43.652;24.906;2024-01-27T00:40:01;99656.09;;;0.81;100.00
7962;BME280;4026;43.652;24.906;2024-01-27T00:42:28;99654.38;;;0.83;100.00
7962;BME280;4026;43.652;24.906;2024-01-27T00:44:56;99656.72;;;0.90;100.00
7962;BME280;4026;43.652;24.906;2024-01-27T00:47:23;99650.84;;;0.90;100.00
7962;BME280;4026;43.652;24.906;2024-01-27T00:49:50;99656.75;;;0.89;100.00
7962;BME280;4026;43.652;24.906;2024-01-27T00:52:19;99662.81;;;0.82;100.00
7962;BME280;4026;43.652;24.906;2024-01-27T00:54:46;99662.88;;;0.79;100.00
7962;BME280;4026;43.652;24.906;2024-01-27T00:57:13;99649.56;;;0.74;100.00
7962;BME280;4026;43.652;24.906;2024-01-27T00:59:40;99643.63;;;0.76;100.00
7962;BME280;4026;43.652;24.906;2024-01-27T01:02:08;99642.84;;;0.73;100.00
7962;BME280;4026;43.652;24.906;2024-01-27T01:04:35;99629.59;;;0.66;100.00
7962;BME280;4026;43.652;24.906;2024-01-27T01:07:02;99627.84;;;0.70;100.00
7962;BME280;4026;43.652;24.906;2024-01-27T01:09:29;99631.97;;;0.72;100.00
7962;BME280;4026;43.652;24.906;2024-01-27T01:11:56;99624.53;;;0.67;100.00
7962;BME280;4026;43.652;24.906;2024-01-27T01:14:23;99616.03;;;0.73;100.00
7962;BME280;4026;43.652;24.906;2024-01-27T01:16:50;99612.81;;;0.66;100.00
7962;BME280;4026;43.652;24.906;2024-01-27T01:19:18;99618.63;;;0.70;100.00
7962;BME280;4026;43.652;24.906;2024-01-27T01:21:45;99619.44;;;0.71;100.00
7962;BME280;4026;43.652;24.906;2024-01-27T01:24:11;99625.38;;;0.66;100.00
7962;BME280;4026;43.652;24.906;2024-01-27T01:26:38;99626.34;;;0.62;100.00
7962;BME280;4026;43.652;24.906;2024-01-27T01:29:05;99621.38;;;0.59;100.00
7962;BME280;4026;43.652;24.906;2024-01-27T01:31:32;99618.72;;;0.64;100.00
7962;BME280;4026;43.652;24.906;2024-01-27T01:33:58;99619.50;;;0.67;100.00
7962;BME280;4026;43.652;24.906;2024-01-27T01:36:27;99602.66;;;0.70;100.00
7962;BME280;4026;43.652;24.906;2024-01-27T01:38:54;99585.91;;;0.68;100.00
7962;BME280;4026;43.652;24.906;2024-01-27T01:41:20;99594.28;;;0.71;100.00
7962;BME280;4026;43.652;24.906;2024-01-27T01:43:47;99590.97;;;0.68;100.00
7962;BME280;4026;43.652;24.906;2024-01-27T01:46:14;99586.00;;;0.65;100.00
7962;BME280;4026;43.652;24.906;2024-01-27T01:48:41;99587.50;;;0.73;100.00
7962;BME280;4026;43.652;24.906;2024-01-27T01:51:08;99591.69;;;0.74;100.00
7962;BME280;4026;43.652;24.906;2024-01-27T01:53:36;99584.06;;;0.77;100.00
7962;BME280;4026;43.652;24.906;2024-01-27T01:56:04;99581.41;;;0.81;100.00
7962;BME280;4026;43.652;24.906;2024-01-27T01:58:31;99588.94;;;0.83;100.00
7962;BME280;4026;43.652;24.906;2024-01-27T02:00:59;99573.75;;;0.86;100.00
7962;BME280;4026;43.652;24.906;2024-01-27T02:03:26;99565.25;;;0.90;100.00
7962;BME280;4026;43.652;24.906;2024-01-27T02:05:53;99559.31;;;0.93;100.00
7962;BME280;4026;43.652;24.906;2024-01-27T02:08:20;99561.81;;;0.94;100.00
7962;BME280;4026;43.652;24.906;2024-01-27T02:10:48;99562.66;;;0.93;100.00
7962;BME280;4026;43.652;24.906;2024-01-27T02:13:17;99565.31;;;0.88;100.00
7962;BME280;4026;43.652;24.906;2024-01-27T02:15:45;99557.69;;;0.90;100.00
7962;BME280;4026;43.652;24.906;2024-01-27T02:18:12;99566.84;;;0.94;100.00
7962;BME280;4026;43.652;24.906;2024-01-27T02:20:39;99558.50;;;0.92;100.00
7962;BME280;4026;43.652;24.906;2024-01-27T02:23:05;99555.06;;;0.96;100.00
7962;BME280;4026;43.652;24.906;2024-01-27T02:25:34;99543.41;;;0.92;100.00
7962;BME280;4026;43.652;24.906;2024-01-27T02:28:01;99540.78;;;0.95;100.00
7962;BME280;4026;43.652;24.906;2024-01-27T02:30:29;99529.63;;;1.05;100.00
7962;BME280;4026;43.652;24.906;2024-01-27T02:32:56;99517.72;;;1.10;100.00
7962;BME280;4026;43.652;24.906;2024-01-27T02:35:23;99510.88;;;1.16;100.00
7962;BME280;4026;43.652;24.906;2024-01-27T02:37:50;99498.28;;;1.16;100.00
7962;BME280;4026;43.652;24.906;2024-01-27T02:40:17;99505.59;;;1.25;100.00
7962;BME280;4026;43.652;24.906;2024-01-27T02:42:45;99499.63;;;1.29;100.00
7962;BME280;4026;43.652;24.906;2024-01-27T02:45:12;99508.72;;;1.33;100.00
7962;BME280;4026;43.652;24.906;2024-01-27T02:47:39;99516.16;;;1.38;100.00
7962;BME280;4026;43.652;24.906;2024-01-27T02:50:07;99515.25;;;1.40;100.00
7962;BME280;4026;43.652;24.906;2024-01-27T02:52:34;99523.50;;;1.45;100.00
7962;BME280;4026;43.652;24.906;2024-01-27T02:55:01;99503.19;;;1.51;100.00
7962;BME280;4026;43.652;24.906;2024-01-27T02:57:28;99513.19;;;1.54;100.00
7962;BME280;4026;43.652;24.906;2024-01-27T02:59:56;99514.69;;;1.60;100.00
7962;BME280;4026;43.652;24.906;2024-01-27T03:02:24;99504.63;;;1.60;100.00
7962;BME280;4026;43.652;24.906;2024-01-27T03:04:51;99510.34;;;1.65;100.00
7962;BME280;4026;43.652;24.906;2024-01-27T03:07:18;99511.25;;;1.63;100.00
7962;BME280;4026;43.652;24.906;2024-01-27T03:09:44;99499.44;;;1.65;100.00
7962;BME280;4026;43.652;24.906;2024-01-27T03:12:11;99489.41;;;1.63;100.00
7962;BME280;4026;43.652;24.906;2024-01-27T03:14:38;99475.06;;;1.65;100.00
7962;BME280;4026;43.652;24.906;2024-01-27T03:17:06;99478.25;;;1.70;100.00
7962;BME280;4026;43.652;24.906;2024-01-27T03:19:33;99480.56;;;1.78;100.00
7962;BME280;4026;43.652;24.906;2024-01-27T03:22:00;99471.31;;;1.78;100.00
7962;BME280;4026;43.652;24.906;2024-01-27T03:24:27;99472.13;;;1.79;100.00
7962;BME280;4026;43.652;24.906;2024-01-27T03:26:54;99457.00;;;1.79;100.00
7962;BME280;4026;43.652;24.906;2024-01-27T03:29:20;99454.47;;;1.79;100.00
7962;BME280;4026;43.652;24.906;2024-01-27T03:31:47;99456.81;;;1.85;100.00
7962;BME280;4026;43.652;24.906;2024-01-27T03:34:16;99452.56;;;1.87;100.00
7962;BME280;4026;43.652;24.906;2024-01-27T03:36:47;99449.84;;;1.93;100.00
7962;BME280;4026;43.652;24.906;2024-01-27T03:39:14;99453.16;;;1.95;100.00
7962;BME280;4026;43.652;24.906;2024-01-27T03:41:41;99451.28;;;2.00;100.00
7962;BME280;4026;43.652;24.906;2024-01-27T03:44:08;99454.41;;;2.09;100.00
7962;BME280;4026;43.652;24.906;2024-01-27T03:46:35;99451.03;;;2.10;100.00
7962;BME280;4026;43.652;24.906;2024-01-27T03:49:02;99438.34;;;2.11;100.00
7962;BME280;4026;43.652;24.906;2024-01-27T03:51:31;99432.47;;;2.11;100.00
7962;BME280;4026;43.652;24.906;2024-01-27T03:53:58;99417.25;;;2.14;100.00
7962;BME280;4026;43.652;24.906;2024-01-27T03:56:25;99425.50;;;2.19;100.00
7962;BME280;4026;43.652;24.906;2024-01-27T03:58:51;99428.66;;;2.24;100.00
7962;BME280;4026;43.652;24.906;2024-01-27T04:01:18;99420.03;;;2.31;100.00
7962;BME280;4026;43.652;24.906;2024-01-27T04:03:45;99426.59;;;2.37;100.00
7962;BME280;4026;43.652;24.906;2024-01-27T04:06:12;99422.13;;;2.45;100.00
7962;BME280;4026;43.652;24.906;2024-01-27T04:08:40;99416.13;;;2.47;100.00
7962;BME280;4026;43.652;24.906;2024-01-27T04:11:09;99416.03;;;2.51;100.00
7962;BME280;4026;43.652;24.906;2024-01-27T04:13:36;99420.06;;;2.56;100.00
7962;BME280;4026;43.652;24.906;2024-01-27T04:16:03;99420.75;;;2.60;100.00
7962;BME280;4026;43.652;24.906;2024-01-27T04:18:30;99427.44;;;2.61;100.00
7962;BME280;4026;43.652;24.906;2024-01-27T04:20:56;99427.44;;;2.61;100.00
7962;BME280;4026;43.652;24.906;2024-01-27T04:23:23;99430.75;;;2.63;100.00
7962;BME280;4026;43.652;24.906;2024-01-27T04:25:51;99420.75;;;2.60;100.00
7962;BME280;4026;43.652;24.906;2024-01-27T04:28:18;99423.19;;;2.63;100.00
7962;BME280;4026;43.652;24.906;2024-01-27T04:30:45;99429.75;;;2.67;100.00
7962;BME280;4026;43.652;24.906;2024-01-27T04:33:12;99423.84;;;2.68;100.00
7962;BME280;4026;43.652;24.906;2024-01-27T04:35:38;99410.25;;;2.72;100.00
7962;BME280;4026;43.652;24.906;2024-01-27T04:38:05;99408.50;;;2.74;100.00
7962;BME280;4026;43.652;24.906;2024-01-27T04:40:34;99416.09;;;2.72;100.00
7962;BME280;4026;43.652;24.906;2024-01-27T04:43:02;99411.97;;;2.70;100.00
7962;BME280;4026;43.652;24.906;2024-01-27T04:45:29;99416.81;;;2.76;100.00
7962;BME280;4026;43.652;24.906;2024-01-27T04:47:56;99417.84;;;2.70;100.00
7962;BME280;4026;43.652;24.906;2024-01-27T04:50:23;99413.75;;;2.68;100.00
7962;BME280;4026;43.652;24.906;2024-01-27T04:52:50;99422.41;;;2.61;100.00
7962;BME280;4026;43.652;24.906;2024-01-27T04:55:17;99425.22;;;2.53;100.00
7962;BME280;4026;43.652;24.906;2024-01-27T04:57:44;99419.31;;;2.53;100.00
7962;BME280;4026;43.652;24.906;2024-01-27T05:00:13;99419.31;;;2.53;100.00
7962;BME280;4026;43.652;24.906;2024-01-27T05:02:41;99417.78;;;2.48;100.00
7962;BME280;4026;43.652;24.906;2024-01-27T05:05:08;99422.75;;;2.50;100.00
7962;BME280;4026;43.652;24.906;2024-01-27T05:07:37;99422.00;;;2.48;100.00
7962;BME280;4026;43.652;24.906;2024-01-27T05:10:05;99427.06;;;2.48;100.00
7962;BME280;4026;43.652;24.906;2024-01-27T05:12:32;99429.50;;;2.49;100.00
7962;BME280;4026;43.652;24.906;2024-01-27T05:14:58;99431.28;;;2.47;100.00
7962;BME280;4026;43.652;24.906;2024-01-27T05:17:27;99428.66;;;2.51;100.00
7962;BME280;4026;43.652;24.906;2024-01-27T05:19:53;99427.78;;;2.52;100.00
7962;BME280;4026;43.652;24.906;2024-01-27T05:22:20;99426.94;;;2.51;100.00
7962;BME280;4026;43.652;24.906;2024-01-27T05:24:47;99424.56;;;2.46;100.00
7962;BME280;4026;43.652;24.906;2024-01-27T05:27:14;99429.63;;;2.46;100.00
7962;BME280;4026;43.652;24.906;2024-01-27T05:29:41;99430.31;;;2.50;100.00
7962;BME280;4026;43.652;24.906;2024-01-27T05:32:08;99431.94;;;2.53;100.00
7962;BME280;4026;43.652;24.906;2024-01-27T05:34:36;99432.91;;;2.48;100.00
7962;BME280;4026;43.652;24.906;2024-01-27T05:37:03;99434.66;;;2.46;100.00
7962;BME280;4026;43.652;24.906;2024-01-27T05:39:30;99434.44;;;2.53;100.00
7962;BME280;4026;43.652;24.906;2024-01-27T05:41:57;99436.22;;;2.51;100.00
7962;BME280;4026;43.652;24.906;2024-01-27T05:44:24;99436.84;;;2.57;100.00
7962;BME280;4026;43.652;24.906;2024-01-27T05:46:51;99431.00;;;2.55;100.00
7962;BME280;4026;43.652;24.906;2024-01-27T05:49:18;99430.19;;;2.55;100.00
7962;BME280;4026;43.652;24.906;2024-01-27T05:51:46;99431.88;;;2.54;100.00
7962;BME280;4026;43.652;24.906;2024-01-27T05:54:13;99433.75;;;2.49;100.00
7962;BME280;4026;43.652;24.906;2024-01-27T05:56:42;99424.56;;;2.46;100.00
7962;BME280;4026;43.652;24.906;2024-01-27T05:59:09;99431.47;;;2.41;100.00
7962;BME280;4026;43.652;24.906;2024-01-27T06:01:36;99426.41;;;2.41;100.00
7962;BME280;4026;43.652;24.906;2024-01-27T06:04:03;99439.91;;;2.40;100.00
7962;BME280;4026;43.652;24.906;2024-01-27T06:06:29;99430.63;;;2.41;100.00
7962;BME280;4026;43.652;24.906;2024-01-27T06:08:58;99430.59;;;2.42;100.00
7962;BME280;4026;43.652;24.906;2024-01-27T06:11:24;99421.69;;;2.32;100.00
7962;BME280;4026;43.652;24.906;2024-01-27T06:13:51;99425.19;;;2.28;100.00
7962;BME280;4026;43.652;24.906;2024-01-27T06:16:18;99427.59;;;2.31;100.00
7962;BME280;4026;43.652;24.906;2024-01-27T06:18:45;99420.25;;;2.25;100.00
7962;BME280;4026;43.652;24.906;2024-01-27T06:21:12;99424.47;;;2.24;100.00
7962;BME280;4026;43.652;24.906;2024-01-27T06:23:39;99415.09;;;2.28;100.00
7962;BME280;4026;43.652;24.906;2024-01-27T06:26:08;99416.84;;;2.26;100.00
7962;BME280;4026;43.652;24.906;2024-01-27T06:28:35;99414.31;;;2.26;100.00
7962;BME280;4026;43.652;24.906;2024-01-27T06:31:02;99411.69;;;2.29;100.00
7962;BME280;4026;43.652;24.906;2024-01-27T06:33:29;99408.31;;;2.30;100.00
7962;BME280;4026;43.652;24.906;2024-01-27T06:35:56;99415.03;;;2.30;100.00
7962;BME280;4026;43.652;24.906;2024-01-27T06:38:23;99411.44;;;2.37;100.00
7962;BME280;4026;43.652;24.906;2024-01-27T06:40:50;99411.34;;;2.40;100.00
7962;BME280;4026;43.652;24.906;2024-01-27T06:43:18;99403.97;;;2.34;100.00
7962;BME280;4026;43.652;24.906;2024-01-27T06:45:45;99404.69;;;2.37;100.00
7962;BME280;4026;43.652;24.906;2024-01-27T06:48:11;99407.19;;;2.39;100.00
7962;BME280;4026;43.652;24.906;2024-01-27T06:50:38;99411.28;;;2.41;100.00
7962;BME280;4026;43.652;24.906;2024-01-27T06:53:05;99406.09;;;2.46;100.00
7962;BME280;4026;43.652;24.906;2024-01-27T06:55:32;99407.56;;;2.52;100.00
7962;BME280;4026;43.652;24.906;2024-01-27T06:57:59;99409.44;;;2.46;100.00
7962;BME280;4026;43.652;24.906;2024-01-27T07:00:27;99411.09;;;2.47;100.00
7962;BME280;4026;43.652;24.906;2024-01-27T07:02:54;99412.72;;;2.48;100.00
7962;BME280;4026;43.652;24.906;2024-01-27T07:05:21;99410.88;;;2.54;100.00
7962;BME280;4026;43.652;24.906;2024-01-27T07:07:48;99414.91;;;2.59;100.00
7962;BME280;4026;43.652;24.906;2024-01-27T07:10:15;99404.47;;;2.68;100.00
7962;BME280;4026;43.652;24.906;2024-01-27T07:12:42;99398.72;;;2.65;100.00
7962;BME280;4026;43.652;24.906;2024-01-27T07:15:09;99395.31;;;2.66;100.00
7962;BME280;4026;43.652;24.906;2024-01-27T07:17:37;99397.72;;;2.69;100.00
7962;BME280;4026;43.652;24.906;2024-01-27T07:20:05;99399.25;;;2.73;100.00
7962;BME280;4026;43.652;24.906;2024-01-27T07:22:32;99404.41;;;2.70;100.00
7962;BME280;4026;43.652;24.906;2024-01-27T07:24:59;99409.34;;;2.73;100.00
7962;BME280;4026;43.652;24.906;2024-01-27T07:27:26;99410.91;;;2.77;100.00
7962;BME280;4026;43.652;24.906;2024-01-27T07:29:52;99414.19;;;2.79;100.00
7962;BME280;4026;43.652;24.906;2024-01-27T07:32:19;99412.63;;;2.77;100.00
7962;BME280;4026;43.652;24.906;2024-01-27T07:34:49;99425.06;;;2.81;100.00
7962;BME280;4026;43.652;24.906;2024-01-27T07:37:15;99420.69;;;2.86;100.00
7962;BME280;4026;43.652;24.906;2024-01-27T07:39:42;99422.31;;;2.87;100.00
7962;BME280;4026;43.652;24.906;2024-01-27T07:42:09;99421.34;;;2.91;100.00
7962;BME280;4026;43.652;24.906;2024-01-27T07:44:36;99418.59;;;2.98;100.00
7962;BME280;4026;43.652;24.906;2024-01-27T07:47:03;99421.59;;;3.07;100.00
7962;BME280;4026;43.652;24.906;2024-01-27T07:49:30;99411.28;;;3.13;100.00
7962;BME280;4026;43.652;24.906;2024-01-27T07:51:58;99423.75;;;3.18;100.00
7962;BME280;4026;43.652;24.906;2024-01-27T07:54:25;99428.69;;;3.21;100.00
7962;BME280;4026;43.652;24.906;2024-01-27T07:56:52;99419.88;;;3.31;100.00
7962;BME280;4026;43.652;24.906;2024-01-27T07:59:19;99422.13;;;3.39;100.00
7962;BME280;4026;43.652;24.906;2024-01-27T08:01:45;99422.66;;;3.47;100.00
7962;BME280;4026;43.652;24.906;2024-01-27T08:04:12;99426.84;;;3.48;100.00
7962;BME280;4026;43.652;24.906;2024-01-27T08:06:48;99419.09;;;3.53;100.00
7962;BME280;4026;43.652;24.906;2024-01-27T08:09:17;99422.84;;;3.65;100.00
7962;BME280;4026;43.652;24.906;2024-01-27T08:11:45;99425.44;;;3.63;100.00
7962;BME280;4026;43.652;24.906;2024-01-27T08:14:16;99434.47;;;3.69;100.00
7962;BME280;4026;43.652;24.906;2024-01-27T08:16:43;99436.97;;;3.70;100.00
7962;BME280;4026;43.652;24.906;2024-01-27T08:19:10;99435.91;;;3.76;100.00
7962;BME280;4026;43.652;24.906;2024-01-27T08:21:37;99436.50;;;3.82;100.00
7962;BME280;4026;43.652;24.906;2024-01-27T08:24:04;99436.25;;;3.89;100.00
7962;BME280;4026;43.652;24.906;2024-01-27T08:26:32;99435.19;;;3.94;100.00
7962;BME280;4026;43.652;24.906;2024-01-27T08:28:59;99443.41;;;3.99;100.00
7962;BME280;4026;43.652;24.906;2024-01-27T08:31:26;99444.38;;;3.97;100.00
7962;BME280;4026;43.652;24.906;2024-01-27T08:33:52;99435.75;;;4.01;100.00
7962;BME280;4026;43.652;24.906;2024-01-27T08:36:19;99442.97;;;4.10;100.00
7962;BME280;4026;43.652;24.906;2024-01-27T08:38:46;99452.81;;;4.18;100.00
7962;BME280;4026;43.652;24.906;2024-01-27T08:41:13;99457.69;;;4.22;100.00
7962;BME280;4026;43.652;24.906;2024-01-27T08:43:41;99460.75;;;4.30;100.00
7962;BME280;4026;43.652;24.906;2024-01-27T08:46:08;99465.03;;;4.28;100.00
7962;BME280;4026;43.652;24.906;2024-01-27T08:48:37;99472.53;;;4.30;100.00
7962;BME280;4026;43.652;24.906;2024-01-27T08:51:04;99474.94;;;4.33;100.00
7962;BME280;4026;43.652;24.906;2024-01-27T08:53:31;99479.75;;;4.39;100.00
7962;BME280;4026;43.652;24.906;2024-01-27T08:55:57;99489.59;;;4.47;100.00
7962;BME280;4026;43.652;24.906;2024-01-27T08:58:24;99498.81;;;4.48;100.00
7962;BME280;4026;43.652;24.906;2024-01-27T09:00:52;99493.59;;;4.52;100.00
7962;BME280;4026;43.652;24.906;2024-01-27T09:03:19;99485.94;;;4.54;100.00
7962;BME280;4026;43.652;24.906;2024-01-27T09:05:46;99493.19;;;4.62;100.00
7962;BME280;4026;43.652;24.906;2024-01-27T09:08:14;99483.03;;;4.63;100.00
7962;BME280;4026;43.652;24.906;2024-01-27T09:10:41;99476.94;;;4.67;100.00
7962;BME280;4026;43.652;24.906;2024-01-27T09:13:08;99496.81;;;4.76;100.00
7962;BME280;4026;43.652;24.906;2024-01-27T09:15:34;99493.28;;;4.81;100.00
7962;BME280;4026;43.652;24.906;2024-01-27T09:18:03;99495.72;;;4.82;100.00
7962;BME280;4026;43.652;24.906;2024-01-27T09:20:31;99507.44;;;4.85;100.00
7962;BME280;4026;43.652;24.906;2024-01-27T09:22:58;99503.16;;;4.87;100.00
7962;BME280;4026;43.652;24.906;2024-01-27T09:25:24;99507.25;;;4.89;100.00
7962;BME280;4026;43.652;24.906;2024-01-27T09:27:53;99499.59;;;4.91;100.00
7962;BME280;4026;43.652;24.906;2024-01-27T09:30:20;99504.38;;;4.97;100.00
7962;BME280;4026;43.652;24.906;2024-01-27T09:32:47;99508.59;;;4.98;100.00
7962;BME280;4026;43.652;24.906;2024-01-27T09:35:15;99510.09;;;5.02;100.00
7962;BME280;4026;43.652;24.906;2024-01-27T09:37:42;99504.13;;;5.03;100.00
7962;BME280;4026;43.652;24.906;2024-01-27T09:40:11;99505.09;;;5.01;100.00
7962;BME280;4026;43.652;24.906;2024-01-27T09:42:38;99496.41;;;5.06;100.00
7962;BME280;4026;43.652;24.906;2024-01-27T09:45:05;99505.66;;;5.07;100.00
7962;BME280;4026;43.652;24.906;2024-01-27T09:47:32;99507.28;;;5.08;100.00
7962;BME280;4026;43.652;24.906;2024-01-27T09:50:00;99509.81;;;5.08;100.00
7962;BME280;4026;43.652;24.906;2024-01-27T09:52:28;99508.94;;;5.09;100.00
7962;BME280;4026;43.652;24.906;2024-01-27T09:54:55;99502.22;;;5.08;100.00
7962;BME280;4026;43.652;24.906;2024-01-27T09:57:22;99500.44;;;5.10;100.00
7962;BME280;4026;43.652;24.906;2024-01-27T09:59:49;99504.84;;;5.07;100.00
7962;BME280;4026;43.652;24.906;2024-01-27T10:02:17;99511.28;;;5.14;100.00
7962;BME280;4026;43.652;24.906;2024-01-27T10:04:47;99501.94;;;5.14;100.00
7962;BME280;4026;43.652;24.906;2024-01-27T10:07:14;99510.28;;;5.18;100.00
7962;BME280;4026;43.652;24.906;2024-01-27T10:09:43;99507.78;;;5.16;100.00
7962;BME280;4026;43.652;24.906;2024-01-27T10:12:10;99517.03;;;5.17;100.00
7962;BME280;4026;43.652;24.906;2024-01-27T10:14:39;99519.44;;;5.20;100.00
7962;BME280;4026;43.652;24.906;2024-01-27T10:17:09;99526.16;;;5.21;100.00
7962;BME280;4026;43.652;24.906;2024-01-27T10:19:36;99520.97;;;5.25;100.00
7962;BME280;4026;43.652;24.906;2024-01-27T10:22:03;99530.19;;;5.26;100.00
7962;BME280;4026;43.652;24.906;2024-01-27T10:24:31;99528.34;;;5.29;100.00
7962;BME280;4026;43.652;24.906;2024-01-27T10:27:01;99525.69;;;5.32;100.00
7962;BME280;4026;43.652;24.906;2024-01-27T10:29:28;99527.88;;;5.40;100.00
7962;BME280;4026;43.652;24.906;2024-01-27T10:31:55;99537.63;;;5.49;100.00
7962;BME280;4026;43.652;24.906;2024-01-27T10:34:22;99540.50;;;5.60;100.00
7962;BME280;4026;43.652;24.906;2024-01-27T10:36:49;99534.56;;;5.61;100.00
7962;BME280;4026;43.652;24.906;2024-01-27T10:39:20;99536.97;;;5.64;100.00
7962;BME280;4026;43.652;24.906;2024-01-27T10:41:48;99540.38;;;5.63;100.00
7962;BME280;4026;43.652;24.906;2024-01-27T10:44:17;99534.88;;;5.73;100.00
7962;BME280;4026;43.652;24.906;2024-01-27T10:46:45;99544.22;;;5.91;100.00
7962;BME280;4026;43.652;24.906;2024-01-27T10:49:13;99548.75;;;6.03;100.00
7962;BME280;4026;43.652;24.906;2024-01-27T10:51:44;99546.84;;;6.08;100.00
7962;BME280;4026;43.652;24.906;2024-01-27T10:54:14;99540.84;;;6.09;100.00
7962;BME280;4026;43.652;24.906;2024-01-27T10:56:42;99549.28;;;6.10;100.00
7962;BME280;4026;43.652;24.906;2024-01-27T10:59:11;99547.41;;;6.13;100.00
7962;BME280;4026;43.652;24.906;2024-01-27T11:01:40;99560.53;;;6.23;100.00
7962;BME280;4026;43.652;24.906;2024-01-27T11:04:08;99571.53;;;6.41;100.00
7962;BME280;4026;43.652;24.906;2024-01-27T11:06:39;99571.56;;;6.58;100.00
7962;BME280;4026;43.652;24.906;2024-01-27T11:09:08;99573.34;;;6.74;100.00
7962;BME280;4026;43.652;24.906;2024-01-27T11:11:35;99580.34;;;6.86;100.00
7962;BME280;4026;43.652;24.906;2024-01-27T11:14:02;99580.50;;;6.83;100.00
7962;BME280;4026;43.652;24.906;2024-01-27T11:16:29;99585.75;;;6.80;100.00
7962;BME280;4026;43.652;24.906;2024-01-27T11:18:57;99585.84;;;6.96;100.00
7962;BME280;4026;43.652;24.906;2024-01-27T11:21:24;99595.91;;;7.15;100.00
7962;BME280;4026;43.652;24.906;2024-01-27T11:23:51;99593.16;;;7.35;100.00
7962;BME280;4026;43.652;24.906;2024-01-27T11:26:20;99601.63;;;7.69;100.00
7962;BME280;4026;43.652;24.906;2024-01-27T11:28:47;99597.28;;;7.71;100.00
7962;BME280;4026;43.652;24.906;2024-01-27T11:31:17;99601.78;;;7.82;100.00
7962;BME280;4026;43.652;24.906;2024-01-27T11:33:46;99619.88;;;7.93;100.00
7962;BME280;4026;43.652;24.906;2024-01-27T11:36:22;99614.06;;;8.07;100.00
7962;BME280;4026;43.652;24.906;2024-01-27T11:38:49;99604.28;;;8.47;100.00
7962;BME280;4026;43.652;24.906;2024-01-27T11:41:24;99608.47;;;8.78;100.00
7962;BME280;4026;43.652;24.906;2024-01-27T11:43:52;99610.00;;;8.96;100.00
7962;BME280;4026;43.652;24.906;2024-01-27T11:46:19;99606.16;;;8.89;100.00
7962;BME280;4026;43.652;24.906;2024-01-27T11:48:46;99607.13;;;8.87;100.00
7962;BME280;4026;43.652;24.906;2024-01-27T11:51:14;99608.94;;;8.70;100.00
7962;BME280;4026;43.652;24.906;2024-01-27T11:53:42;99611.47;;;8.70;100.00
7962;BME280;4026;43.652;24.906;2024-01-27T11:56:10;99618.38;;;8.68;100.00
7962;BME280;4026;43.652;24.906;2024-01-27T11:58:37;99601.06;;;8.59;100.00
7962;BME280;4026;43.652;24.906;2024-01-27T12:01:04;99613.41;;;8.51;100.00
7962;BME280;4026;43.652;24.906;2024-01-27T12:03:32;99614.50;;;8.47;100.00
7962;BME280;4026;43.652;24.906;2024-01-27T12:05:59;99625.66;;;8.44;100.00
7962;BME280;4026;43.652;24.906;2024-01-27T12:08:26;99625.31;;;8.50;100.00
7962;BME280;4026;43.652;24.906;2024-01-27T12:10:54;99631.16;;;8.52;100.00
7962;BME280;4026;43.652;24.906;2024-01-27T12:13:22;99636.00;;;8.57;100.00
7962;BME280;4026;43.652;24.906;2024-01-27T12:15:48;99640.44;;;8.53;100.00
7962;BME280;4026;43.652;24.906;2024-01-27T12:18:15;99639.63;;;8.53;100.00
7962;BME280;4026;43.652;24.906;2024-01-27T12:20:44;99637.78;;;8.55;100.00
7962;BME280;4026;43.652;24.906;2024-01-27T12:23:11;99637.16;;;8.51;100.00
7962;BME280;4026;43.652;24.906;2024-01-27T12:25:38;99641.94;;;8.42;100.00
7962;BME280;4026;43.652;24.906;2024-01-27T12:28:07;99648.97;;;8.36;100.00
7962;BME280;4026;43.652;24.906;2024-01-27T12:30:35;99647.09;;;8.40;100.00
7962;BME280;4026;43.652;24.906;2024-01-27T12:33:09;99643.41;;;8.46;100.00
7962;BME280;4026;43.652;24.906;2024-01-27T12:35:36;99649.81;;;8.53;100.00
7962;BME280;4026;43.652;24.906;2024-01-27T12:38:05;99649.66;;;8.56;100.00
7962;BME280;4026;43.652;24.906;2024-01-27T12:40:32;99651.38;;;8.55;100.00
7962;BME280;4026;43.652;24.906;2024-01-27T12:42:58;99655.91;;;8.50;100.00
7962;BME280;4026;43.652;24.906;2024-01-27T12:45:27;99652.44;;;8.51;100.00
7962;BME280;4026;43.652;24.906;2024-01-27T12:47:54;99665.44;;;8.47;100.00
7962;BME280;4026;43.652;24.906;2024-01-27T12:50:21;99662.31;;;8.42;100.00
7962;BME280;4026;43.652;24.906;2024-01-27T12:52:48;99653.44;;;8.49;100.00
7962;BME280;4026;43.652;24.906;2024-01-27T12:55:15;99665.34;;;8.48;100.00
7962;BME280;4026;43.652;24.906;2024-01-27T12:57:42;99664.44;;;8.33;100.00
7962;BME280;4026;43.652;24.906;2024-01-27T13:00:09;99655.97;;;8.33;100.00
7962;BME280;4026;43.652;24.906;2024-01-27T13:02:39;99659.50;;;8.30;100.00
